sensor_id;sensor_type;location;lat;lon;timestamp;temperature;humidity
64012;DHT22;50211;52.768;12.124;2023-02-28T00:00:49;-1.60;99.90
64012;DHT22;50211;52.768;12.124;2023-02-28T00:03:14;-1.60;99.90
64012;DHT22;50211;52.768;12.124;2023-02-28T00:05:40;-1.70;99.90
64012;DHT22;50211;52.768;12.124;2023-02-28T00:08:07;-1.70;99.90
64012;DHT22;50211;52.768;12.124;2023-02-28T00:10:32;-1.70;99.90
64012;DHT22;50211;52.768;12.124;2023-02-28T00:13:04;-1.70;99.90
64012;DHT22;50211;52.768;12.124;2023-02-28T00:15:30;-1.70;99.90
64012;DHT22;50211;52.768;12.124;2023-02-28T00:17:56;-1.70;99.90
64012;DHT22;50211;52.768;12.124;2023-02-28T00:20:21;-1.80;99.90
64012;DHT22;50211;52.768;12.124;2023-02-28T00:22:49;-1.80;99.90
64012;DHT22;50211;52.768;12.124;2023-02-28T00:25:18;-1.80;99.90
64012;DHT22;50211;52.768;12.124;2023-02-28T00:27:45;-1.80;99.90
64012;DHT22;50211;52.768;12.124;2023-02-28T00:30:14;-1.80;99.90
64012;DHT22;50211;52.768;12.124;2023-02-28T00:32:41;-1.80;99.90
64012;DHT22;50211;52.768;12.124;2023-02-28T00:35:08;-1.80;99.90
64012;DHT22;50211;52.768;12.124;2023-02-28T00:37:34;-1.90;99.90
64012;DHT22;50211;52.768;12.124;2023-02-28T00:40:00;-1.90;99.90
64012;DHT22;50211;52.768;12.124;2023-02-28T00:42:25;-1.90;99.90
64012;DHT22;50211;52.768;12.124;2023-02-28T00:44:51;-1.90;99.90
64012;DHT22;50211;52.768;12.124;2023-02-28T00:47:16;-1.90;99.90
64012;DHT22;50211;52.768;12.124;2023-02-28T00:49:42;-1.90;99.90
64012;DHT22;50211;52.768;12.124;2023-02-28T00:52:07;-1.90;99.90
64012;DHT22;50211;52.768;12.124;2023-02-28T00:54:33;-2.00;99.90
64012;DHT22;50211;52.768;12.124;2023-02-28T00:56:59;-2.10;99.90
64012;DHT22;50211;52.768;12.124;2023-02-28T00:59:24;-2.10;99.90
64012;DHT22;50211;52.768;12.124;2023-02-28T01:01:50;-2.10;99.90
64012;DHT22;50211;52.768;12.124;2023-02-28T01:04:15;-2.10;99.90
64012;DHT22;50211;52.768;12.124;2023-02-28T01:06:41;-2.10;99.90
64012;DHT22;50211;52.768;12.124;2023-02-28T01:09:07;-2.10;99.90
64012;DHT22;50211;52.768;12.124;2023-02-28T01:11:33;-2.00;99.90
64012;DHT22;50211;52.768;12.124;2023-02-28T01:14:00;-2.10;99.90
64012;DHT22;50211;52.768;12.124;2023-02-28T01:16:25;-2.10;99.90
64012;DHT22;50211;52.768;12.124;2023-02-28T01:18:51;-2.10;99.90
64012;DHT22;50211;52.768;12.124;2023-02-28T01:21:19;-2.10;99.90
64012;DHT22;50211;52.768;12.124;2023-02-28T01:23:45;-2.20;99.90
64012;DHT22;50211;52.768;12.124;2023-02-28T01:26:16;-2.30;99.90
64012;DHT22;50211;52.768;12.124;2023-02-28T01:28:42;-2.30;99.90
64012;DHT22;50211;52.768;12.124;2023-02-28T01:31:09;-2.40;99.90
64012;DHT22;50211;52.768;12.124;2023-02-28T01:33:34;-2.40;99.90
64012;DHT22;50211;52.768;12.124;2023-02-28T01:36:02;-2.40;99.90
64012;DHT22;50211;52.768;12.124;2023-02-28T01:38:27;-2.40;99.90
64012;DHT22;50211;52.768;12.124;2023-02-28T01:40:53;-2.50;99.90
64012;DHT22;50211;52.768;12.124;2023-02-28T01:43:52;-2.50;99.90
64012;DHT22;50211;52.768;12.124;2023-02-28T01:46:17;-2.50;99.90
64012;DHT22;50211;52.768;12.124;2023-02-28T01:49:06;-2.60;99.90
64012;DHT22;50211;52.768;12.124;2023-02-28T01:51:49;-2.60;99.90
64012;DHT22;50211;52.768;12.124;2023-02-28T01:54:22;-2.60;99.90
64012;DHT22;50211;52.768;12.124;2023-02-28T01:56:55;-2.50;99.90
64012;DHT22;50211;52.768;12.124;2023-02-28T01:59:31;-2.50;99.90
64012;DHT22;50211;52.768;12.124;2023-02-28T02:01:59;-2.50;99.90
64012;DHT22;50211;52.768;12.124;2023-02-28T02:04:30;-2.50;99.90
64012;DHT22;50211;52.768;12.124;2023-02-28T02:06:58;-2.50;99.90
64012;DHT22;50211;52.768;12.124;2023-02-28T02:09:24;-2.50;99.90
64012;DHT22;50211;52.768;12.124;2023-02-28T02:11:49;-2.50;99.90
64012;DHT22;50211;52.768;12.124;2023-02-28T02:19:50;-2.50;99.90
64012;DHT22;50211;52.768;12.124;2023-02-28T02:22:36;-2.50;99.90
64012;DHT22;50211;52.768;12.124;2023-02-28T02:30:48;-2.50;99.90
64012;DHT22;50211;52.768;12.124;2023-02-28T02:36:51;-2.40;99.90
64012;DHT22;50211;52.768;12.124;2023-02-28T02:39:31;-2.50;99.90
64012;DHT22;50211;52.768;12.124;2023-02-28T02:42:04;-2.60;99.90
64012;DHT22;50211;52.768;12.124;2023-02-28T02:44:41;-2.60;99.90
64012;DHT22;50211;52.768;12.124;2023-02-28T02:47:13;-2.60;99.90
64012;DHT22;50211;52.768;12.124;2023-02-28T02:49:44;-2.60;99.90
64012;DHT22;50211;52.768;12.124;2023-02-28T02:52:14;-2.60;99.90
64012;DHT22;50211;52.768;12.124;2023-02-28T02:54:44;-2.60;99.90
64012;DHT22;50211;52.768;12.124;2023-02-28T02:57:17;-2.60;99.90
64012;DHT22;50211;52.768;12.124;2023-02-28T02:59:46;-2.70;99.90
64012;DHT22;50211;52.768;12.124;2023-02-28T03:02:15;-2.90;99.90
64012;DHT22;50211;52.768;12.124;2023-02-28T03:04:45;-2.90;99.90
64012;DHT22;50211;52.768;12.124;2023-02-28T03:07:11;-2.90;99.90
64012;DHT22;50211;52.768;12.124;2023-02-28T03:09:36;-2.90;99.90
64012;DHT22;50211;52.768;12.124;2023-02-28T03:12:04;-2.90;99.90
64012;DHT22;50211;52.768;12.124;2023-02-28T03:14:46;-2.80;99.90
64012;DHT22;50211;52.768;12.124;2023-02-28T03:17:42;-2.80;99.90
64012;DHT22;50211;52.768;12.124;2023-02-28T03:20:27;-2.80;99.90
64012;DHT22;50211;52.768;12.124;2023-02-28T03:23:07;-2.80;99.90
64012;DHT22;50211;52.768;12.124;2023-02-28T03:26:04;-2.80;99.90
64012;DHT22;50211;52.768;12.124;2023-02-28T03:33:44;-2.80;99.90
64012;DHT22;50211;52.768;12.124;2023-02-28T03:36:15;-2.90;99.90
64012;DHT22;50211;52.768;12.124;2023-02-28T03:39:02;-2.90;99.90
64012;DHT22;50211;52.768;12.124;2023-02-28T03:41:41;-2.80;99.90
64012;DHT22;50211;52.768;12.124;2023-02-28T03:44:13;-2.90;99.90
64012;DHT22;50211;52.768;12.124;2023-02-28T03:46:44;-3.00;99.90
64012;DHT22;50211;52.768;12.124;2023-02-28T03:49:31;-3.00;99.90
64012;DHT22;50211;52.768;12.124;2023-02-28T03:51:58;-3.00;99.90
64012;DHT22;50211;52.768;12.124;2023-02-28T03:54:29;-3.00;99.90
64012;DHT22;50211;52.768;12.124;2023-02-28T03:57:04;-3.00;99.90
64012;DHT22;50211;52.768;12.124;2023-02-28T03:59:39;-3.00;99.90
64012;DHT22;50211;52.768;12.124;2023-02-28T04:02:07;-3.10;99.90
64012;DHT22;50211;52.768;12.124;2023-02-28T04:04:33;-3.10;99.90
64012;DHT22;50211;52.768;12.124;2023-02-28T04:07:07;-3.00;99.90
64012;DHT22;50211;52.768;12.124;2023-02-28T04:09:33;-3.00;99.90
64012;DHT22;50211;52.768;12.124;2023-02-28T04:11:59;-3.00;99.90
64012;DHT22;50211;52.768;12.124;2023-02-28T04:14:25;-3.00;99.90
64012;DHT22;50211;52.768;12.124;2023-02-28T04:16:51;-3.00;99.90
64012;DHT22;50211;52.768;12.124;2023-02-28T04:19:18;-2.90;99.90
64012;DHT22;50211;52.768;12.124;2023-02-28T04:21:49;-3.10;99.90
64012;DHT22;50211;52.768;12.124;2023-02-28T04:24:20;-3.20;99.90
64012;DHT22;50211;52.768;12.124;2023-02-28T04:26:48;-3.20;99.90
64012;DHT22;50211;52.768;12.124;2023-02-28T04:29:20;-3.10;99.90
64012;DHT22;50211;52.768;12.124;2023-02-28T04:31:46;-3.10;99.90
64012;DHT22;50211;52.768;12.124;2023-02-28T04:34:12;-3.00;99.90
64012;DHT22;50211;52.768;12.124;2023-02-28T04:36:37;-3.00;99.90
64012;DHT22;50211;52.768;12.124;2023-02-28T04:39:03;-3.00;99.90
64012;DHT22;50211;52.768;12.124;2023-02-28T04:41:29;-3.10;99.90
64012;DHT22;50211;52.768;12.124;2023-02-28T04:43:55;-3.10;99.90
64012;DHT22;50211;52.768;12.124;2023-02-28T04:46:21;-3.10;99.90
64012;DHT22;50211;52.768;12.124;2023-02-28T04:48:47;-3.20;99.90
64012;DHT22;50211;52.768;12.124;2023-02-28T04:51:15;-3.20;99.90
64012;DHT22;50211;52.768;12.124;2023-02-28T04:53:41;-3.20;99.90
64012;DHT22;50211;52.768;12.124;2023-02-28T04:56:10;-3.10;99.90
64012;DHT22;50211;52.768;12.124;2023-02-28T04:58:36;-3.10;99.90
64012;DHT22;50211;52.768;12.124;2023-02-28T05:01:23;-3.00;99.90
64012;DHT22;50211;52.768;12.124;2023-02-28T05:03:50;-3.00;99.90
64012;DHT22;50211;52.768;12.124;2023-02-28T05:06:16;-3.00;99.90
64012;DHT22;50211;52.768;12.124;2023-02-28T05:08:42;-3.00;99.90
64012;DHT22;50211;52.768;12.124;2023-02-28T05:11:16;-3.00;99.90
64012;DHT22;50211;52.768;12.124;2023-02-28T05:13:42;-2.90;99.90
64012;DHT22;50211;52.768;12.124;2023-02-28T05:16:08;-2.90;99.90
64012;DHT22;50211;52.768;12.124;2023-02-28T05:18:33;-2.90;99.90
64012;DHT22;50211;52.768;12.124;2023-02-28T05:20:59;-2.90;99.90
64012;DHT22;50211;52.768;12.124;2023-02-28T05:23:27;-2.90;99.90
64012;DHT22;50211;52.768;12.124;2023-02-28T05:25:52;-2.90;99.90
64012;DHT22;50211;52.768;12.124;2023-02-28T05:28:19;-2.90;99.90
64012;DHT22;50211;52.768;12.124;2023-02-28T05:30:45;-3.00;99.90
64012;DHT22;50211;52.768;12.124;2023-02-28T05:33:11;-3.00;99.90
64012;DHT22;50211;52.768;12.124;2023-02-28T05:35:39;-3.00;99.90
64012;DHT22;50211;52.768;12.124;2023-02-28T05:38:04;-3.00;99.90
64012;DHT22;50211;52.768;12.124;2023-02-28T05:40:30;-3.00;99.90
64012;DHT22;50211;52.768;12.124;2023-02-28T05:42:55;-3.10;99.90
64012;DHT22;50211;52.768;12.124;2023-02-28T05:45:21;-3.10;99.90
64012;DHT22;50211;52.768;12.124;2023-02-28T05:47:46;-3.10;99.90
64012;DHT22;50211;52.768;12.124;2023-02-28T05:50:12;-3.10;99.90
64012;DHT22;50211;52.768;12.124;2023-02-28T05:52:37;-3.10;99.90
64012;DHT22;50211;52.768;12.124;2023-02-28T05:55:03;-3.10;99.90
64012;DHT22;50211;52.768;12.124;2023-02-28T05:57:29;-3.00;99.90
64012;DHT22;50211;52.768;12.124;2023-02-28T05:59:55;-3.00;99.90
64012;DHT22;50211;52.768;12.124;2023-02-28T06:02:20;-3.10;99.90
64012;DHT22;50211;52.768;12.124;2023-02-28T06:04:46;-3.10;99.90
64012;DHT22;50211;52.768;12.124;2023-02-28T06:07:12;-3.00;99.90
64012;DHT22;50211;52.768;12.124;2023-02-28T06:09:38;-3.00;99.90
64012;DHT22;50211;52.768;12.124;2023-02-28T06:12:05;-3.00;99.90
64012;DHT22;50211;52.768;12.124;2023-02-28T06:14:33;-3.00;99.90
64012;DHT22;50211;52.768;12.124;2023-02-28T06:16:59;-3.00;99.90
64012;DHT22;50211;52.768;12.124;2023-02-28T06:19:25;-3.10;99.90
64012;DHT22;50211;52.768;12.124;2023-02-28T06:21:51;-3.10;99.90
64012;DHT22;50211;52.768;12.124;2023-02-28T06:24:21;-3.10;99.90
64012;DHT22;50211;52.768;12.124;2023-02-28T06:26:48;-3.00;99.90
64012;DHT22;50211;52.768;12.124;2023-02-28T06:29:13;-3.00;99.90
64012;DHT22;50211;52.768;12.124;2023-02-28T06:31:44;-3.00;99.90
64012;DHT22;50211;52.768;12.124;2023-02-28T06:34:10;-3.00;99.90
64012;DHT22;50211;52.768;12.124;2023-02-28T06:36:41;-3.00;99.90
64012;DHT22;50211;52.768;12.124;2023-02-28T06:39:07;-3.00;99.90
64012;DHT22;50211;52.768;12.124;2023-02-28T06:41:33;-3.00;99.90
64012;DHT22;50211;52.768;12.124;2023-02-28T06:44:10;-2.90;99.90
64012;DHT22;50211;52.768;12.124;2023-02-28T06:46:36;-2.90;99.90
64012;DHT22;50211;52.768;12.124;2023-02-28T06:49:03;-2.90;99.90
64012;DHT22;50211;52.768;12.124;2023-02-28T06:51:29;-2.80;99.90
64012;DHT22;50211;52.768;12.124;2023-02-28T06:53:54;-2.80;99.90
64012;DHT22;50211;52.768;12.124;2023-02-28T06:56:20;-2.70;99.90
64012;DHT22;50211;52.768;12.124;2023-02-28T06:58:47;-2.70;99.90
64012;DHT22;50211;52.768;12.124;2023-02-28T07:01:14;-2.70;99.90
64012;DHT22;50211;52.768;12.124;2023-02-28T07:03:40;-2.60;99.90
64012;DHT22;50211;52.768;12.124;2023-02-28T07:06:05;-2.60;99.90
64012;DHT22;50211;52.768;12.124;2023-02-28T07:08:31;-2.50;99.90
64012;DHT22;50211;52.768;12.124;2023-02-28T07:10:58;-2.40;99.90
64012;DHT22;50211;52.768;12.124;2023-02-28T07:13:24;-2.30;99.90
64012;DHT22;50211;52.768;12.124;2023-02-28T07:16:02;-2.20;99.90
64012;DHT22;50211;52.768;12.124;2023-02-28T07:18:28;-2.10;99.90
64012;DHT22;50211;52.768;12.124;2023-02-28T07:20:54;-2.00;99.90
64012;DHT22;50211;52.768;12.124;2023-02-28T07:23:20;-1.80;99.90
64012;DHT22;50211;52.768;12.124;2023-02-28T07:25:45;-1.70;99.90
64012;DHT22;50211;52.768;12.124;2023-02-28T07:28:11;-1.50;99.90
64012;DHT22;50211;52.768;12.124;2023-02-28T07:30:37;-1.30;99.90
64012;DHT22;50211;52.768;12.124;2023-02-28T07:33:03;-1.20;99.90
64012;DHT22;50211;52.768;12.124;2023-02-28T07:35:29;-1.00;99.90
64012;DHT22;50211;52.768;12.124;2023-02-28T07:37:54;-0.90;99.90
64012;DHT22;50211;52.768;12.124;2023-02-28T07:40:20;-0.80;99.90
64012;DHT22;50211;52.768;12.124;2023-02-28T07:42:46;-0.60;99.90
64012;DHT22;50211;52.768;12.124;2023-02-28T07:45:12;-0.50;99.90
64012;DHT22;50211;52.768;12.124;2023-02-28T07:47:38;-0.30;99.90
64012;DHT22;50211;52.768;12.124;2023-02-28T07:50:05;-0.30;99.90
64012;DHT22;50211;52.768;12.124;2023-02-28T07:52:31;-0.10;99.90
64012;DHT22;50211;52.768;12.124;2023-02-28T07:54:57;0.10;99.90
64012;DHT22;50211;52.768;12.124;2023-02-28T07:57:23;0.30;99.90
64012;DHT22;50211;52.768;12.124;2023-02-28T07:59:48;0.50;99.90
64012;DHT22;50211;52.768;12.124;2023-02-28T08:02:15;0.50;99.90
64012;DHT22;50211;52.768;12.124;2023-02-28T08:04:41;0.70;99.90
64012;DHT22;50211;52.768;12.124;2023-02-28T08:07:06;0.90;99.90
64012;DHT22;50211;52.768;12.124;2023-02-28T08:09:32;1.20;99.90
64012;DHT22;50211;52.768;12.124;2023-02-28T08:11:58;1.40;99.90
64012;DHT22;50211;52.768;12.124;2023-02-28T08:14:23;1.40;99.90
64012;DHT22;50211;52.768;12.124;2023-02-28T08:16:49;1.50;99.90
64012;DHT22;50211;52.768;12.124;2023-02-28T08:19:14;1.60;99.90
64012;DHT22;50211;52.768;12.124;2023-02-28T08:21:40;1.80;99.90
64012;DHT22;50211;52.768;12.124;2023-02-28T08:24:06;2.00;99.90
64012;DHT22;50211;52.768;12.124;2023-02-28T08:26:31;2.30;99.90
64012;DHT22;50211;52.768;12.124;2023-02-28T08:28:57;2.50;99.90
64012;DHT22;50211;52.768;12.124;2023-02-28T08:31:22;2.60;99.90
64012;DHT22;50211;52.768;12.124;2023-02-28T08:33:48;2.90;99.90
64012;DHT22;50211;52.768;12.124;2023-02-28T08:36:16;3.10;99.90
64012;DHT22;50211;52.768;12.124;2023-02-28T08:38:42;3.30;99.90
64012;DHT22;50211;52.768;12.124;2023-02-28T08:41:10;3.60;99.90
64012;DHT22;50211;52.768;12.124;2023-02-28T08:43:36;3.90;99.90
64012;DHT22;50211;52.768;12.124;2023-02-28T08:46:02;4.10;99.90
64012;DHT22;50211;52.768;12.124;2023-02-28T08:48:30;4.20;99.90
64012;DHT22;50211;52.768;12.124;2023-02-28T08:51:02;4.40;99.90
64012;DHT22;50211;52.768;12.124;2023-02-28T08:53:28;4.60;99.90
64012;DHT22;50211;52.768;12.124;2023-02-28T08:56:09;4.70;99.90
64012;DHT22;50211;52.768;12.124;2023-02-28T08:58:35;4.80;99.90
64012;DHT22;50211;52.768;12.124;2023-02-28T09:01:28;5.10;99.90
64012;DHT22;50211;52.768;12.124;2023-02-28T09:03:52;5.20;99.90
64012;DHT22;50211;52.768;12.124;2023-02-28T09:06:20;5.60;99.90
64012;DHT22;50211;52.768;12.124;2023-02-28T09:08:45;5.80;99.90
64012;DHT22;50211;52.768;12.124;2023-02-28T09:11:11;5.90;99.90
64012;DHT22;50211;52.768;12.124;2023-02-28T09:13:38;5.90;99.90
64012;DHT22;50211;52.768;12.124;2023-02-28T09:16:06;6.20;99.90
64012;DHT22;50211;52.768;12.124;2023-02-28T09:18:33;6.40;99.90
64012;DHT22;50211;52.768;12.124;2023-02-28T09:20:59;6.60;99.90
64012;DHT22;50211;52.768;12.124;2023-02-28T09:23:27;6.80;99.90
64012;DHT22;50211;52.768;12.124;2023-02-28T09:25:54;7.00;99.90
64012;DHT22;50211;52.768;12.124;2023-02-28T09:28:20;7.00;99.90
64012;DHT22;50211;52.768;12.124;2023-02-28T09:30:48;7.00;99.90
64012;DHT22;50211;52.768;12.124;2023-02-28T09:33:15;7.20;99.90
64012;DHT22;50211;52.768;12.124;2023-02-28T09:35:41;7.40;99.90
64012;DHT22;50211;52.768;12.124;2023-02-28T09:38:09;7.50;99.90
64012;DHT22;50211;52.768;12.124;2023-02-28T09:40:52;7.60;99.90
64012;DHT22;50211;52.768;12.124;2023-02-28T09:43:21;7.40;99.90
64012;DHT22;50211;52.768;12.124;2023-02-28T09:45:53;7.30;99.90
64012;DHT22;50211;52.768;12.124;2023-02-28T09:48:32;7.30;99.90
64012;DHT22;50211;52.768;12.124;2023-02-28T09:51:05;7.20;99.90
64012;DHT22;50211;52.768;12.124;2023-02-28T09:53:36;7.50;99.90
64012;DHT22;50211;52.768;12.124;2023-02-28T09:56:08;7.70;99.90
64012;DHT22;50211;52.768;12.124;2023-02-28T09:58:39;8.00;99.90
64012;DHT22;50211;52.768;12.124;2023-02-28T10:01:21;8.40;99.90
64012;DHT22;50211;52.768;12.124;2023-02-28T10:04:15;8.60;99.90
64012;DHT22;50211;52.768;12.124;2023-02-28T10:06:44;9.10;99.90
64012;DHT22;50211;52.768;12.124;2023-02-28T10:09:24;9.30;99.90
64012;DHT22;50211;52.768;12.124;2023-02-28T10:11:55;9.50;99.90
64012;DHT22;50211;52.768;12.124;2023-02-28T10:14:23;9.60;99.90
64012;DHT22;50211;52.768;12.124;2023-02-28T10:17:01;9.80;99.90
64012;DHT22;50211;52.768;12.124;2023-02-28T10:20:05;9.90;99.90
64012;DHT22;50211;52.768;12.124;2023-02-28T10:23:04;10.00;99.90
64012;DHT22;50211;52.768;12.124;2023-02-28T10:25:35;10.20;99.90
64012;DHT22;50211;52.768;12.124;2023-02-28T10:28:11;10.60;99.90
64012;DHT22;50211;52.768;12.124;2023-02-28T10:30:43;10.80;99.90
64012;DHT22;50211;52.768;12.124;2023-02-28T10:35:44;11.10;99.90
64012;DHT22;50211;52.768;12.124;2023-02-28T10:38:16;11.20;99.90
64012;DHT22;50211;52.768;12.124;2023-02-28T10:40:42;11.40;99.00
64012;DHT22;50211;52.768;12.124;2023-02-28T10:50:59;11.70;98.30
64012;DHT22;50211;52.768;12.124;2023-02-28T10:53:32;11.70;93.90
64012;DHT22;50211;52.768;12.124;2023-02-28T10:58:57;11.60;94.20
64012;DHT22;50211;52.768;12.124;2023-02-28T11:01:36;11.50;93.40
64012;DHT22;50211;52.768;12.124;2023-02-28T11:04:16;11.40;92.10
64012;DHT22;50211;52.768;12.124;2023-02-28T11:06:42;11.60;94.50
64012;DHT22;50211;52.768;12.124;2023-02-28T11:09:35;11.50;92.20
64012;DHT22;50211;52.768;12.124;2023-02-28T11:12:02;11.00;92.60
64012;DHT22;50211;52.768;12.124;2023-02-28T11:14:32;10.80;93.80
64012;DHT22;50211;52.768;12.124;2023-02-28T11:17:12;10.90;94.70
64012;DHT22;50211;52.768;12.124;2023-02-28T11:19:43;10.70;93.70
64012;DHT22;50211;52.768;12.124;2023-02-28T11:22:09;10.80;93.20
64012;DHT22;50211;52.768;12.124;2023-02-28T11:24:44;10.60;94.10
64012;DHT22;50211;52.768;12.124;2023-02-28T11:29:57;10.90;93.60
64012;DHT22;50211;52.768;12.124;2023-02-28T11:32:27;10.70;93.80
64012;DHT22;50211;52.768;12.124;2023-02-28T11:37:35;9.90;94.50
64012;DHT22;50211;52.768;12.124;2023-02-28T11:40:01;10.20;93.70
64012;DHT22;50211;52.768;12.124;2023-02-28T11:42:36;10.40;94.10
64012;DHT22;50211;52.768;12.124;2023-02-28T11:45:34;10.40;93.20
64012;DHT22;50211;52.768;12.124;2023-02-28T11:59:12;10.80;92.10
64012;DHT22;50211;52.768;12.124;2023-02-28T12:02:01;10.90;92.00
64012;DHT22;50211;52.768;12.124;2023-02-28T12:07:30;11.50;92.00
64012;DHT22;50211;52.768;12.124;2023-02-28T12:10:29;11.60;91.50
64012;DHT22;50211;52.768;12.124;2023-02-28T12:13:12;12.00;92.10
64012;DHT22;50211;52.768;12.124;2023-02-28T12:16:13;12.20;90.80
64012;DHT22;50211;52.768;12.124;2023-02-28T12:22:03;12.20;90.40
64012;DHT22;50211;52.768;12.124;2023-02-28T12:25:14;12.50;90.10
64012;DHT22;50211;52.768;12.124;2023-02-28T12:27:46;12.90;90.00
64012;DHT22;50211;52.768;12.124;2023-02-28T12:30:26;12.60;88.70
64012;DHT22;50211;52.768;12.124;2023-02-28T12:33:12;12.40;89.20
64012;DHT22;50211;52.768;12.124;2023-02-28T12:35:55;12.30;89.60
64012;DHT22;50211;52.768;12.124;2023-02-28T12:38:22;12.60;90.00
64012;DHT22;50211;52.768;12.124;2023-02-28T12:40:59;13.00;88.50
64012;DHT22;50211;52.768;12.124;2023-02-28T12:43:32;13.50;87.00
64012;DHT22;50211;52.768;12.124;2023-02-28T12:46:06;13.50;86.40
64012;DHT22;50211;52.768;12.124;2023-02-28T12:48:48;13.70;86.60
64012;DHT22;50211;52.768;12.124;2023-02-28T12:51:16;14.10;81.90
64012;DHT22;50211;52.768;12.124;2023-02-28T12:53:49;14.10;80.90
64012;DHT22;50211;52.768;12.124;2023-02-28T12:58:58;14.40;83.10
64012;DHT22;50211;52.768;12.124;2023-02-28T13:01:42;14.40;79.60
64012;DHT22;50211;52.768;12.124;2023-02-28T13:09:38;14.40;78.60
64012;DHT22;50211;52.768;12.124;2023-02-28T13:12:14;14.30;76.50
64012;DHT22;50211;52.768;12.124;2023-02-28T13:14:40;14.10;78.50
64012;DHT22;50211;52.768;12.124;2023-02-28T13:27:50;13.20;81.70
64012;DHT22;50211;52.768;12.124;2023-02-28T13:34:05;12.90;81.40
64012;DHT22;50211;52.768;12.124;2023-02-28T13:36:26;12.70;82.60
64012;DHT22;50211;52.768;12.124;2023-02-28T13:38:56;13.10;77.10
64012;DHT22;50211;52.768;12.124;2023-02-28T14:06:21;13.80;75.30
64012;DHT22;50211;52.768;12.124;2023-02-28T14:09:18;13.60;77.10
64012;DHT22;50211;52.768;12.124;2023-02-28T14:11:46;13.10;76.80
64012;DHT22;50211;52.768;12.124;2023-02-28T14:17:08;13.10;77.90
64012;DHT22;50211;52.768;12.124;2023-02-28T14:19:38;13.50;76.70
64012;DHT22;50211;52.768;12.124;2023-02-28T14:22:49;13.40;75.70
64012;DHT22;50211;52.768;12.124;2023-02-28T14:28:33;14.90;72.50
64012;DHT22;50211;52.768;12.124;2023-02-28T14:31:12;15.20;71.00
64012;DHT22;50211;52.768;12.124;2023-02-28T14:33:59;15.00;71.30
64012;DHT22;50211;52.768;12.124;2023-02-28T14:36:32;14.30;74.30
64012;DHT22;50211;52.768;12.124;2023-02-28T14:39:04;14.00;75.60
64012;DHT22;50211;52.768;12.124;2023-02-28T14:41:34;14.10;74.00
64012;DHT22;50211;52.768;12.124;2023-02-28T14:44:21;14.30;74.50
64012;DHT22;50211;52.768;12.124;2023-02-28T14:46:50;14.00;73.80
64012;DHT22;50211;52.768;12.124;2023-02-28T14:49:37;13.10;73.70
64012;DHT22;50211;52.768;12.124;2023-02-28T14:52:14;12.00;76.90
64012;DHT22;50211;52.768;12.124;2023-02-28T14:54:41;10.90;78.00
64012;DHT22;50211;52.768;12.124;2023-02-28T14:57:24;10.60;80.60
64012;DHT22;50211;52.768;12.124;2023-02-28T15:02:33;10.10;81.70
64012;DHT22;50211;52.768;12.124;2023-02-28T15:05:02;9.60;84.90
64012;DHT22;50211;52.768;12.124;2023-02-28T15:07:36;8.90;88.10
64012;DHT22;50211;52.768;12.124;2023-02-28T15:10:13;8.60;90.20
64012;DHT22;50211;52.768;12.124;2023-02-28T15:12:40;8.30;91.60
64012;DHT22;50211;52.768;12.124;2023-02-28T15:15:14;8.10;91.90
64012;DHT22;50211;52.768;12.124;2023-02-28T15:17:44;8.10;92.00
64012;DHT22;50211;52.768;12.124;2023-02-28T15:20:13;8.20;92.20
64012;DHT22;50211;52.768;12.124;2023-02-28T15:22:39;7.80;91.90
64012;DHT22;50211;52.768;12.124;2023-02-28T15:25:05;7.70;93.00
64012;DHT22;50211;52.768;12.124;2023-02-28T15:27:33;7.50;93.20
64012;DHT22;50211;52.768;12.124;2023-02-28T15:30:08;7.50;93.70
64012;DHT22;50211;52.768;12.124;2023-02-28T15:32:38;7.50;93.60
64012;DHT22;50211;52.768;12.124;2023-02-28T15:37:55;7.70;93.70
64012;DHT22;50211;52.768;12.124;2023-02-28T15:40:30;7.60;94.00
64012;DHT22;50211;52.768;12.124;2023-02-28T15:43:07;7.60;94.40
64012;DHT22;50211;52.768;12.124;2023-02-28T15:45:38;8.40;93.60
64012;DHT22;50211;52.768;12.124;2023-02-28T15:48:20;9.10;91.90
64012;DHT22;50211;52.768;12.124;2023-02-28T15:53:45;10.20;89.50
64012;DHT22;50211;52.768;12.124;2023-02-28T15:56:24;10.80;87.80
64012;DHT22;50211;52.768;12.124;2023-02-28T15:58:53;11.10;85.60
64012;DHT22;50211;52.768;12.124;2023-02-28T16:01:24;11.10;87.50
64012;DHT22;50211;52.768;12.124;2023-02-28T16:03:53;11.00;87.60
64012;DHT22;50211;52.768;12.124;2023-02-28T16:06:26;11.10;87.80
64012;DHT22;50211;52.768;12.124;2023-02-28T16:08:56;11.50;88.70
64012;DHT22;50211;52.768;12.124;2023-02-28T16:11:21;12.00;88.80
64012;DHT22;50211;52.768;12.124;2023-02-28T16:13:47;12.10;87.90
64012;DHT22;50211;52.768;12.124;2023-02-28T16:16:21;12.00;87.80
64012;DHT22;50211;52.768;12.124;2023-02-28T16:18:47;11.70;88.50
64012;DHT22;50211;52.768;12.124;2023-02-28T16:21:13;10.90;90.20
64012;DHT22;50211;52.768;12.124;2023-02-28T16:23:39;10.20;90.60
64012;DHT22;50211;52.768;12.124;2023-02-28T16:26:05;9.50;91.70
64012;DHT22;50211;52.768;12.124;2023-02-28T16:28:33;8.70;92.70
64012;DHT22;50211;52.768;12.124;2023-02-28T16:31:01;8.10;94.00
64012;DHT22;50211;52.768;12.124;2023-02-28T16:33:30;7.60;95.10
64012;DHT22;50211;52.768;12.124;2023-02-28T16:35:56;7.10;96.10
64012;DHT22;50211;52.768;12.124;2023-02-28T16:38:22;6.90;96.00
64012;DHT22;50211;52.768;12.124;2023-02-28T16:40:50;6.50;96.60
64012;DHT22;50211;52.768;12.124;2023-02-28T16:43:19;6.20;97.20
64012;DHT22;50211;52.768;12.124;2023-02-28T16:45:46;5.90;98.60
64012;DHT22;50211;52.768;12.124;2023-02-28T16:48:15;5.70;99.30
64012;DHT22;50211;52.768;12.124;2023-02-28T16:50:41;5.40;99.90
64012;DHT22;50211;52.768;12.124;2023-02-28T16:53:07;5.30;99.90
64012;DHT22;50211;52.768;12.124;2023-02-28T16:55:34;5.00;99.90
64012;DHT22;50211;52.768;12.124;2023-02-28T16:58:01;4.80;99.90
64012;DHT22;50211;52.768;12.124;2023-02-28T17:00:28;4.60;99.90
64012;DHT22;50211;52.768;12.124;2023-02-28T17:02:55;4.50;99.90
64012;DHT22;50211;52.768;12.124;2023-02-28T17:05:21;4.40;99.90
64012;DHT22;50211;52.768;12.124;2023-02-28T17:07:47;4.20;99.90
64012;DHT22;50211;52.768;12.124;2023-02-28T17:10:19;4.10;99.90
64012;DHT22;50211;52.768;12.124;2023-02-28T17:12:45;4.00;99.90
64012;DHT22;50211;52.768;12.124;2023-02-28T17:15:13;3.70;99.90
64012;DHT22;50211;52.768;12.124;2023-02-28T17:17:40;3.20;99.90
64012;DHT22;50211;52.768;12.124;2023-02-28T17:20:09;3.00;99.90
64012;DHT22;50211;52.768;12.124;2023-02-28T17:22:36;2.90;99.90
64012;DHT22;50211;52.768;12.124;2023-02-28T17:25:01;2.90;99.90
64012;DHT22;50211;52.768;12.124;2023-02-28T17:27:27;2.90;99.90
64012;DHT22;50211;52.768;12.124;2023-02-28T17:29:52;2.90;99.90
64012;DHT22;50211;52.768;12.124;2023-02-28T17:32:18;2.90;99.90
64012;DHT22;50211;52.768;12.124;2023-02-28T17:34:44;2.80;99.90
64012;DHT22;50211;52.768;12.124;2023-02-28T17:37:11;2.70;99.90